sensor_id;sensor_type;location;lat;lon;timestamp;P1;durP1;ratioP1;P2;durP2;ratioP2
39218;SDS011;24934;52.752;6.964;2023-11-21T00:01:02;129.90;;;46.27;;
39218;SDS011;24934;52.752;6.964;2023-11-21T00:03:30;140.00;;;46.87;;
39218;SDS011;24934;52.752;6.964;2023-11-21T00:05:56;127.00;;;46.60;;
39218;SDS011;24934;52.752;6.964;2023-11-21T00:08:22;132.07;;;46.10;;
39218;SDS011;24934;52.752;6.964;2023-11-21T00:10:48;124.30;;;45.83;;
39218;SDS011;24934;52.752;6.964;2023-11-21T00:13:14;142.57;;;48.00;;
39218;SDS011;24934;52.752;6.964;2023-11-21T00:15:40;127.00;;;45.27;;
39218;SDS011;24934;52.752;6.964;2023-11-21T00:18:06;130.90;;;46.07;;
39218;SDS011;24934;52.752;6.964;2023-11-21T00:20:32;132.10;;;45.67;;
39218;SDS011;24934;52.752;6.964;2023-11-21T00:22:58;143.20;;;45.47;;
39218;SDS011;24934;52.752;6.964;2023-11-21T00:25:27;127.20;;;46.33;;
39218;SDS011;24934;52.752;6.964;2023-11-21T00:27:53;130.07;;;46.60;;
39218;SDS011;24934;52.752;6.964;2023-11-21T00:30:19;143.93;;;47.50;;
39218;SDS011;24934;52.752;6.964;2023-11-21T00:32:47;124.43;;;46.63;;
39218;SDS011;24934;52.752;6.964;2023-11-21T00:35:13;133.00;;;47.43;;
39218;SDS011;24934;52.752;6.964;2023-11-21T00:37:39;138.80;;;48.03;;
39218;SDS011;24934;52.752;6.964;2023-11-21T00:40:05;141.57;;;48.10;;
39218;SDS011;24934;52.752;6.964;2023-11-21T00:42:31;138.97;;;46.90;;
39218;SDS011;24934;52.752;6.964;2023-11-21T00:44:58;136.50;;;48.57;;
39218;SDS011;24934;52.752;6.964;2023-11-21T00:47:24;137.23;;;47.93;;
39218;SDS011;24934;52.752;6.964;2023-11-21T00:49:50;153.20;;;50.53;;
39218;SDS011;24934;52.752;6.964;2023-11-21T00:52:17;149.90;;;48.17;;
39218;SDS011;24934;52.752;6.964;2023-11-21T00:54:43;150.10;;;49.73;;
39218;SDS011;24934;52.752;6.964;2023-11-21T00:57:09;140.73;;;47.77;;
39218;SDS011;24934;52.752;6.964;2023-11-21T00:59:36;150.77;;;48.23;;
39218;SDS011;24934;52.752;6.964;2023-11-21T01:02:03;131.33;;;48.13;;
39218;SDS011;24934;52.752;6.964;2023-11-21T01:04:30;147.13;;;49.23;;
39218;SDS011;24934;52.752;6.964;2023-11-21T01:06:57;150.30;;;49.23;;
39218;SDS011;24934;52.752;6.964;2023-11-21T01:09:23;154.00;;;49.60;;
39218;SDS011;24934;52.752;6.964;2023-11-21T01:11:49;147.17;;;48.70;;
39218;SDS011;24934;52.752;6.964;2023-11-21T01:14:16;154.17;;;50.13;;
39218;SDS011;24934;52.752;6.964;2023-11-21T01:16:43;161.30;;;49.80;;
39218;SDS011;24934;52.752;6.964;2023-11-21T01:19:08;151.80;;;50.13;;
39218;SDS011;24934;52.752;6.964;2023-11-21T01:21:35;149.63;;;49.60;;
39218;SDS011;24934;52.752;6.964;2023-11-21T01:24:01;143.07;;;50.20;;
39218;SDS011;24934;52.752;6.964;2023-11-21T01:26:27;148.43;;;49.50;;
39218;SDS011;24934;52.752;6.964;2023-11-21T01:28:53;159.00;;;49.60;;
39218;SDS011;24934;52.752;6.964;2023-11-21T01:31:19;143.97;;;49.77;;
39218;SDS011;24934;52.752;6.964;2023-11-21T01:33:45;135.30;;;48.60;;
39218;SDS011;24934;52.752;6.964;2023-11-21T01:36:12;170.30;;;50.23;;
39218;SDS011;24934;52.752;6.964;2023-11-21T01:38:38;156.70;;;49.87;;
39218;SDS011;24934;52.752;6.964;2023-11-21T01:41:04;159.80;;;50.83;;
39218;SDS011;24934;52.752;6.964;2023-11-21T01:43:31;146.63;;;50.57;;
39218;SDS011;24934;52.752;6.964;2023-11-21T01:45:57;143.90;;;50.37;;
39218;SDS011;24934;52.752;6.964;2023-11-21T01:48:24;150.30;;;50.73;;
39218;SDS011;24934;52.752;6.964;2023-11-21T01:50:50;149.47;;;49.60;;
39218;SDS011;24934;52.752;6.964;2023-11-21T01:53:17;142.80;;;47.57;;
39218;SDS011;24934;52.752;6.964;2023-11-21T01:55:43;135.73;;;49.07;;
39218;SDS011;24934;52.752;6.964;2023-11-21T01:58:10;147.93;;;50.03;;
39218;SDS011;24934;52.752;6.964;2023-11-21T02:00:41;147.83;;;48.47;;
39218;SDS011;24934;52.752;6.964;2023-11-21T02:03:08;130.37;;;48.50;;
39218;SDS011;24934;52.752;6.964;2023-11-21T02:05:35;147.00;;;50.30;;
39218;SDS011;24934;52.752;6.964;2023-11-21T02:08:01;150.37;;;50.83;;
39218;SDS011;24934;52.752;6.964;2023-11-21T02:10:28;149.33;;;49.27;;
39218;SDS011;24934;52.752;6.964;2023-11-21T02:12:56;136.47;;;49.47;;
39218;SDS011;24934;52.752;6.964;2023-11-21T02:15:23;138.83;;;49.27;;
39218;SDS011;24934;52.752;6.964;2023-11-21T02:17:53;128.70;;;47.43;;
39218;SDS011;24934;52.752;6.964;2023-11-21T02:20:23;145.83;;;49.13;;
39218;SDS011;24934;52.752;6.964;2023-11-21T02:22:56;136.93;;;48.70;;
39218;SDS011;24934;52.752;6.964;2023-11-21T02:25:29;148.13;;;48.83;;
39218;SDS011;24934;52.752;6.964;2023-11-21T02:27:57;151.40;;;48.00;;
39218;SDS011;24934;52.752;6.964;2023-11-21T02:30:23;165.40;;;50.70;;
39218;SDS011;24934;52.752;6.964;2023-11-21T02:32:58;151.00;;;49.40;;
39218;SDS011;24934;52.752;6.964;2023-11-21T02:35:25;144.87;;;48.53;;
39218;SDS011;24934;52.752;6.964;2023-11-21T02:37:51;152.83;;;49.43;;
39218;SDS011;24934;52.752;6.964;2023-11-21T02:40:18;154.97;;;50.57;;
39218;SDS011;24934;52.752;6.964;2023-11-21T02:42:48;156.23;;;50.63;;
39218;SDS011;24934;52.752;6.964;2023-11-21T02:45:17;148.87;;;50.40;;
39218;SDS011;24934;52.752;6.964;2023-11-21T02:47:44;147.73;;;50.67;;
39218;SDS011;24934;52.752;6.964;2023-11-21T02:50:10;158.27;;;49.93;;
39218;SDS011;24934;52.752;6.964;2023-11-21T02:52:36;156.20;;;49.60;;
39218;SDS011;24934;52.752;6.964;2023-11-21T02:55:02;137.87;;;49.37;;
39218;SDS011;24934;52.752;6.964;2023-11-21T02:57:28;158.10;;;49.60;;
39218;SDS011;24934;52.752;6.964;2023-11-21T02:59:54;140.77;;;49.47;;
39218;SDS011;24934;52.752;6.964;2023-11-21T03:02:20;148.30;;;50.50;;
39218;SDS011;24934;52.752;6.964;2023-11-21T03:04:47;168.33;;;53.03;;
39218;SDS011;24934;52.752;6.964;2023-11-21T03:07:14;161.97;;;51.50;;
39218;SDS011;24934;52.752;6.964;2023-11-21T03:09:40;151.37;;;49.63;;
39218;SDS011;24934;52.752;6.964;2023-11-21T03:12:06;152.50;;;52.27;;
39218;SDS011;24934;52.752;6.964;2023-11-21T03:14:32;156.43;;;50.17;;
39218;SDS011;24934;52.752;6.964;2023-11-21T03:16:58;151.13;;;50.33;;
39218;SDS011;24934;52.752;6.964;2023-11-21T03:19:24;142.93;;;49.07;;
39218;SDS011;24934;52.752;6.964;2023-11-21T03:21:50;137.30;;;48.83;;
39218;SDS011;24934;52.752;6.964;2023-11-21T03:24:18;148.77;;;48.10;;
39218;SDS011;24934;52.752;6.964;2023-11-21T03:26:45;151.93;;;50.10;;
39218;SDS011;24934;52.752;6.964;2023-11-21T03:29:11;147.80;;;48.73;;
39218;SDS011;24934;52.752;6.964;2023-11-21T03:31:38;146.00;;;48.83;;
39218;SDS011;24934;52.752;6.964;2023-11-21T03:34:04;138.30;;;49.70;;
39218;SDS011;24934;52.752;6.964;2023-11-21T03:36:31;160.13;;;51.27;;
39218;SDS011;24934;52.752;6.964;2023-11-21T03:38:57;135.83;;;50.00;;
39218;SDS011;24934;52.752;6.964;2023-11-21T03:41:23;135.13;;;48.83;;
39218;SDS011;24934;52.752;6.964;2023-11-21T03:43:50;144.63;;;49.70;;
39218;SDS011;24934;52.752;6.964;2023-11-21T03:46:16;140.13;;;49.03;;
39218;SDS011;24934;52.752;6.964;2023-11-21T03:48:43;128.13;;;47.27;;
39218;SDS011;24934;52.752;6.964;2023-11-21T03:51:09;144.27;;;49.93;;
39218;SDS011;24934;52.752;6.964;2023-11-21T03:53:35;141.13;;;49.13;;
39218;SDS011;24934;52.752;6.964;2023-11-21T03:56:02;131.20;;;47.97;;
39218;SDS011;24934;52.752;6.964;2023-11-21T03:58:31;144.57;;;48.07;;
39218;SDS011;24934;52.752;6.964;2023-11-21T04:00:57;141.97;;;48.40;;
39218;SDS011;24934;52.752;6.964;2023-11-21T04:03:23;148.03;;;48.23;;
39218;SDS011;24934;52.752;6.964;2023-11-21T04:05:49;148.53;;;49.70;;
39218;SDS011;24934;52.752;6.964;2023-11-21T04:08:15;144.40;;;48.73;;
39218;SDS011;24934;52.752;6.964;2023-11-21T04:10:41;157.93;;;48.40;;
39218;SDS011;24934;52.752;6.964;2023-11-21T04:13:09;148.50;;;49.60;;
39218;SDS011;24934;52.752;6.964;2023-11-21T04:15:35;152.40;;;50.27;;
39218;SDS011;24934;52.752;6.964;2023-11-21T04:18:01;143.90;;;51.40;;
39218;SDS011;24934;52.752;6.964;2023-11-21T04:20:28;156.00;;;52.03;;
39218;SDS011;24934;52.752;6.964;2023-11-21T04:22:56;146.97;;;52.60;;
39218;SDS011;24934;52.752;6.964;2023-11-21T04:25:22;152.33;;;52.90;;
39218;SDS011;24934;52.752;6.964;2023-11-21T04:27:48;153.43;;;51.47;;
39218;SDS011;24934;52.752;6.964;2023-11-21T04:30:15;142.87;;;51.80;;
39218;SDS011;24934;52.752;6.964;2023-11-21T04:32:41;142.43;;;51.80;;
39218;SDS011;24934;52.752;6.964;2023-11-21T04:35:07;148.67;;;51.37;;
39218;SDS011;24934;52.752;6.964;2023-11-21T04:37:36;139.30;;;51.93;;
39218;SDS011;24934;52.752;6.964;2023-11-21T04:40:02;147.20;;;51.67;;
39218;SDS011;24934;52.752;6.964;2023-11-21T04:42:32;142.43;;;50.43;;
39218;SDS011;24934;52.752;6.964;2023-11-21T04:44:58;140.60;;;50.37;;
39218;SDS011;24934;52.752;6.964;2023-11-21T04:47:24;144.67;;;49.20;;
39218;SDS011;24934;52.752;6.964;2023-11-21T04:49:50;160.30;;;51.47;;
39218;SDS011;24934;52.752;6.964;2023-11-21T04:52:17;152.43;;;50.63;;
39218;SDS011;24934;52.752;6.964;2023-11-21T04:54:45;128.77;;;48.27;;
39218;SDS011;24934;52.752;6.964;2023-11-21T04:57:13;135.97;;;48.30;;
39218;SDS011;24934;52.752;6.964;2023-11-21T04:59:39;138.63;;;48.57;;
39218;SDS011;24934;52.752;6.964;2023-11-21T05:02:05;131.23;;;48.63;;
39218;SDS011;24934;52.752;6.964;2023-11-21T05:04:31;137.93;;;49.83;;
39218;SDS011;24934;52.752;6.964;2023-11-21T05:07:01;170.80;;;49.93;;
39218;SDS011;24934;52.752;6.964;2023-11-21T05:09:27;135.90;;;49.50;;
39218;SDS011;24934;52.752;6.964;2023-11-21T05:11:56;140.60;;;49.70;;
39218;SDS011;24934;52.752;6.964;2023-11-21T05:14:22;139.37;;;50.33;;
39218;SDS011;24934;52.752;6.964;2023-11-21T05:16:48;140.17;;;51.53;;
39218;SDS011;24934;52.752;6.964;2023-11-21T05:19:16;137.63;;;51.37;;
39218;SDS011;24934;52.752;6.964;2023-11-21T05:21:42;134.77;;;50.60;;
39218;SDS011;24934;52.752;6.964;2023-11-21T05:24:08;146.43;;;51.87;;
39218;SDS011;24934;52.752;6.964;2023-11-21T05:26:37;148.73;;;51.63;;
39218;SDS011;24934;52.752;6.964;2023-11-21T05:29:06;135.23;;;50.83;;
39218;SDS011;24934;52.752;6.964;2023-11-21T05:31:32;144.20;;;51.57;;
39218;SDS011;24934;52.752;6.964;2023-11-21T05:33:58;129.27;;;49.47;;
39218;SDS011;24934;52.752;6.964;2023-11-21T05:36:24;141.47;;;50.20;;
39218;SDS011;24934;52.752;6.964;2023-11-21T05:38:50;137.40;;;51.03;;
39218;SDS011;24934;52.752;6.964;2023-11-21T05:41:16;130.97;;;49.03;;
39218;SDS011;24934;52.752;6.964;2023-11-21T05:43:42;133.33;;;47.87;;
39218;SDS011;24934;52.752;6.964;2023-11-21T05:46:08;144.87;;;48.47;;
39218;SDS011;24934;52.752;6.964;2023-11-21T05:48:34;123.60;;;45.77;;
39218;SDS011;24934;52.752;6.964;2023-11-21T05:51:03;131.67;;;48.10;;
39218;SDS011;24934;52.752;6.964;2023-11-21T05:53:29;124.90;;;46.40;;
39218;SDS011;24934;52.752;6.964;2023-11-21T05:55:55;135.37;;;48.30;;
39218;SDS011;24934;52.752;6.964;2023-11-21T05:58:21;130.13;;;48.17;;
39218;SDS011;24934;52.752;6.964;2023-11-21T06:00:47;135.13;;;47.40;;
39218;SDS011;24934;52.752;6.964;2023-11-21T06:03:13;135.67;;;48.77;;
39218;SDS011;24934;52.752;6.964;2023-11-21T06:05:42;132.33;;;49.00;;
39218;SDS011;24934;52.752;6.964;2023-11-21T06:08:08;165.50;;;49.03;;
39218;SDS011;24934;52.752;6.964;2023-11-21T06:10:38;141.33;;;47.37;;
39218;SDS011;24934;52.752;6.964;2023-11-21T06:13:04;154.43;;;49.60;;
39218;SDS011;24934;52.752;6.964;2023-11-21T06:15:38;152.20;;;49.63;;
39218;SDS011;24934;52.752;6.964;2023-11-21T06:18:04;151.47;;;50.83;;
39218;SDS011;24934;52.752;6.964;2023-11-21T06:20:51;150.77;;;50.03;;
39218;SDS011;24934;52.752;6.964;2023-11-21T06:23:18;145.43;;;49.70;;
39218;SDS011;24934;52.752;6.964;2023-11-21T06:25:44;165.90;;;50.27;;
39218;SDS011;24934;52.752;6.964;2023-11-21T06:28:10;164.90;;;51.37;;
39218;SDS011;24934;52.752;6.964;2023-11-21T06:30:36;172.17;;;49.97;;
39218;SDS011;24934;52.752;6.964;2023-11-21T06:33:03;156.00;;;52.57;;
39218;SDS011;24934;52.752;6.964;2023-11-21T06:35:29;142.70;;;50.77;;
39218;SDS011;24934;52.752;6.964;2023-11-21T06:38:02;141.93;;;50.53;;
39218;SDS011;24934;52.752;6.964;2023-11-21T06:40:28;151.90;;;50.97;;
39218;SDS011;24934;52.752;6.964;2023-11-21T06:42:59;134.93;;;48.80;;
39218;SDS011;24934;52.752;6.964;2023-11-21T06:45:25;139.60;;;50.13;;
39218;SDS011;24934;52.752;6.964;2023-11-21T06:47:51;144.53;;;49.27;;
39218;SDS011;24934;52.752;6.964;2023-11-21T06:50:17;145.10;;;49.40;;
39218;SDS011;24934;52.752;6.964;2023-11-21T06:52:44;146.00;;;49.00;;
39218;SDS011;24934;52.752;6.964;2023-11-21T06:55:10;153.77;;;49.60;;
39218;SDS011;24934;52.752;6.964;2023-11-21T06:57:36;149.03;;;52.10;;
39218;SDS011;24934;52.752;6.964;2023-11-21T07:00:03;147.73;;;50.93;;
39218;SDS011;24934;52.752;6.964;2023-11-21T07:02:30;177.23;;;52.40;;
39218;SDS011;24934;52.752;6.964;2023-11-21T07:04:56;179.37;;;54.67;;
39218;SDS011;24934;52.752;6.964;2023-11-21T07:07:22;167.60;;;52.47;;
39218;SDS011;24934;52.752;6.964;2023-11-21T07:09:48;170.07;;;52.17;;
39218;SDS011;24934;52.752;6.964;2023-11-21T07:12:14;173.20;;;51.67;;
39218;SDS011;24934;52.752;6.964;2023-11-21T07:14:40;152.83;;;51.27;;
39218;SDS011;24934;52.752;6.964;2023-11-21T07:17:08;158.50;;;52.43;;
39218;SDS011;24934;52.752;6.964;2023-11-21T07:19:34;167.63;;;52.03;;
39218;SDS011;24934;52.752;6.964;2023-11-21T07:22:00;150.80;;;52.07;;
39218;SDS011;24934;52.752;6.964;2023-11-21T07:24:26;139.53;;;52.13;;
39218;SDS011;24934;52.752;6.964;2023-11-21T07:26:53;158.97;;;53.13;;
39218;SDS011;24934;52.752;6.964;2023-11-21T07:29:22;133.70;;;49.23;;
39218;SDS011;24934;52.752;6.964;2023-11-21T07:31:50;118.47;;;48.30;;
39218;SDS011;24934;52.752;6.964;2023-11-21T07:34:16;126.50;;;47.50;;
39218;SDS011;24934;52.752;6.964;2023-11-21T07:36:42;117.93;;;47.10;;
39218;SDS011;24934;52.752;6.964;2023-11-21T07:39:08;109.57;;;45.20;;
39218;SDS011;24934;52.752;6.964;2023-11-21T07:41:36;103.17;;;45.07;;
39218;SDS011;24934;52.752;6.964;2023-11-21T07:44:03;102.97;;;45.20;;
39218;SDS011;24934;52.752;6.964;2023-11-21T07:46:29;111.00;;;45.73;;
39218;SDS011;24934;52.752;6.964;2023-11-21T07:48:55;101.17;;;44.00;;
39218;SDS011;24934;52.752;6.964;2023-11-21T07:51:21;97.70;;;43.93;;
39218;SDS011;24934;52.752;6.964;2023-11-21T07:53:48;93.27;;;42.10;;
39218;SDS011;24934;52.752;6.964;2023-11-21T07:56:14;96.23;;;43.00;;
39218;SDS011;24934;52.752;6.964;2023-11-21T07:58:40;96.37;;;43.03;;
39218;SDS011;24934;52.752;6.964;2023-11-21T08:01:06;99.20;;;42.43;;
39218;SDS011;24934;52.752;6.964;2023-11-21T08:03:33;97.57;;;41.43;;
39218;SDS011;24934;52.752;6.964;2023-11-21T08:05:59;104.13;;;42.87;;
39218;SDS011;24934;52.752;6.964;2023-11-21T08:08:25;100.33;;;43.20;;
39218;SDS011;24934;52.752;6.964;2023-11-21T08:10:52;101.67;;;42.63;;
39218;SDS011;24934;52.752;6.964;2023-11-21T08:13:22;97.93;;;41.37;;
39218;SDS011;24934;52.752;6.964;2023-11-21T08:15:48;95.43;;;40.97;;
39218;SDS011;24934;52.752;6.964;2023-11-21T08:18:14;98.17;;;42.30;;
39218;SDS011;24934;52.752;6.964;2023-11-21T08:20:42;107.33;;;42.80;;
39218;SDS011;24934;52.752;6.964;2023-11-21T08:23:08;96.37;;;43.10;;
39218;SDS011;24934;52.752;6.964;2023-11-21T08:25:34;95.70;;;42.00;;
39218;SDS011;24934;52.752;6.964;2023-11-21T08:28:00;91.50;;;40.90;;
39218;SDS011;24934;52.752;6.964;2023-11-21T08:30:26;87.80;;;38.80;;
39218;SDS011;24934;52.752;6.964;2023-11-21T08:32:55;92.13;;;39.60;;
39218;SDS011;24934;52.752;6.964;2023-11-21T08:35:23;93.23;;;39.80;;
39218;SDS011;24934;52.752;6.964;2023-11-21T08:37:52;91.57;;;38.30;;
39218;SDS011;24934;52.752;6.964;2023-11-21T08:40:18;81.43;;;37.00;;
39218;SDS011;24934;52.752;6.964;2023-11-21T08:42:47;83.87;;;36.77;;
39218;SDS011;24934;52.752;6.964;2023-11-21T08:45:14;86.60;;;36.63;;
39218;SDS011;24934;52.752;6.964;2023-11-21T08:47:46;89.97;;;36.87;;
39218;SDS011;24934;52.752;6.964;2023-11-21T08:50:13;93.60;;;37.47;;
39218;SDS011;24934;52.752;6.964;2023-11-21T08:52:40;91.30;;;36.67;;
39218;SDS011;24934;52.752;6.964;2023-11-21T08:55:07;96.20;;;37.10;;
39218;SDS011;24934;52.752;6.964;2023-11-21T08:57:36;92.13;;;37.87;;
39218;SDS011;24934;52.752;6.964;2023-11-21T09:00:03;91.90;;;36.73;;
39218;SDS011;24934;52.752;6.964;2023-11-21T09:02:35;87.37;;;37.87;;
39218;SDS011;24934;52.752;6.964;2023-11-21T09:05:07;87.30;;;38.23;;
39218;SDS011;24934;52.752;6.964;2023-11-21T09:07:38;88.33;;;38.07;;
39218;SDS011;24934;52.752;6.964;2023-11-21T09:10:05;86.87;;;38.37;;
39218;SDS011;24934;52.752;6.964;2023-11-21T09:12:33;79.53;;;36.80;;
39218;SDS011;24934;52.752;6.964;2023-11-21T09:15:00;78.93;;;36.90;;
39218;SDS011;24934;52.752;6.964;2023-11-21T09:17:26;73.27;;;37.63;;
39218;SDS011;24934;52.752;6.964;2023-11-21T09:19:53;75.10;;;37.57;;
39218;SDS011;24934;52.752;6.964;2023-11-21T09:22:19;79.00;;;39.77;;
39218;SDS011;24934;52.752;6.964;2023-11-21T09:24:45;76.73;;;39.10;;
39218;SDS011;24934;52.752;6.964;2023-11-21T09:27:13;81.50;;;40.17;;
39218;SDS011;24934;52.752;6.964;2023-11-21T09:29:40;87.00;;;41.60;;
39218;SDS011;24934;52.752;6.964;2023-11-21T09:32:06;82.87;;;41.30;;
39218;SDS011;24934;52.752;6.964;2023-11-21T09:34:37;85.10;;;41.00;;
39218;SDS011;24934;52.752;6.964;2023-11-21T09:37:04;83.53;;;41.10;;
39218;SDS011;24934;52.752;6.964;2023-11-21T09:39:33;66.60;;;38.13;;
39218;SDS011;24934;52.752;6.964;2023-11-21T09:47:26;78.10;;;41.77;;
39218;SDS011;24934;52.752;6.964;2023-11-21T09:49:53;77.00;;;41.20;;
39218;SDS011;24934;52.752;6.964;2023-11-21T09:52:27;76.90;;;42.53;;
39218;SDS011;24934;52.752;6.964;2023-11-21T09:54:54;71.70;;;38.77;;
39218;SDS011;24934;52.752;6.964;2023-11-21T09:57:23;68.40;;;36.80;;
39218;SDS011;24934;52.752;6.964;2023-11-21T09:59:53;54.07;;;35.43;;
39218;SDS011;24934;52.752;6.964;2023-11-21T10:02:25;52.17;;;34.77;;
39218;SDS011;24934;52.752;6.964;2023-11-21T10:04:57;51.63;;;34.03;;
39218;SDS011;24934;52.752;6.964;2023-11-21T10:07:25;50.40;;;33.53;;
39218;SDS011;24934;52.752;6.964;2023-11-21T10:09:51;52.87;;;33.47;;
39218;SDS011;24934;52.752;6.964;2023-11-21T10:12:18;49.90;;;34.17;;
39218;SDS011;24934;52.752;6.964;2023-11-21T10:14:48;51.13;;;33.67;;
39218;SDS011;24934;52.752;6.964;2023-11-21T10:17:14;46.83;;;32.97;;
39218;SDS011;24934;52.752;6.964;2023-11-21T10:19:45;46.23;;;33.67;;
39218;SDS011;24934;52.752;6.964;2023-11-21T10:22:12;48.90;;;34.67;;
39218;SDS011;24934;52.752;6.964;2023-11-21T10:24:39;46.70;;;35.53;;
39218;SDS011;24934;52.752;6.964;2023-11-21T10:27:07;47.10;;;35.97;;
39218;SDS011;24934;52.752;6.964;2023-11-21T10:29:33;46.20;;;35.67;;
39218;SDS011;24934;52.752;6.964;2023-11-21T10:32:03;46.47;;;34.97;;
39218;SDS011;24934;52.752;6.964;2023-11-21T10:34:30;42.93;;;34.70;;
39218;SDS011;24934;52.752;6.964;2023-11-21T10:36:56;43.73;;;36.27;;
39218;SDS011;24934;52.752;6.964;2023-11-21T10:39:23;44.40;;;35.17;;
39218;SDS011;24934;52.752;6.964;2023-11-21T10:41:52;40.93;;;35.30;;
39218;SDS011;24934;52.752;6.964;2023-11-21T10:44:19;37.20;;;33.07;;
39218;SDS011;24934;52.752;6.964;2023-11-21T10:46:46;39.17;;;33.20;;
39218;SDS011;24934;52.752;6.964;2023-11-21T10:49:18;36.00;;;32.20;;
39218;SDS011;24934;52.752;6.964;2023-11-21T10:51:44;32.90;;;29.50;;
39218;SDS011;24934;52.752;6.964;2023-11-21T10:54:10;31.37;;;28.07;;
39218;SDS011;24934;52.752;6.964;2023-11-21T10:56:37;29.83;;;26.63;;
39218;SDS011;24934;52.752;6.964;2023-11-21T10:59:08;32.27;;;27.13;;
39218;SDS011;24934;52.752;6.964;2023-11-21T11:01:44;30.43;;;27.27;;
39218;SDS011;24934;52.752;6.964;2023-11-21T11:04:11;28.70;;;26.00;;
39218;SDS011;24934;52.752;6.964;2023-11-21T11:06:51;27.83;;;25.23;;
39218;SDS011;24934;52.752;6.964;2023-11-21T11:09:20;27.60;;;24.83;;
39218;SDS011;24934;52.752;6.964;2023-11-21T11:11:46;26.57;;;24.17;;
39218;SDS011;24934;52.752;6.964;2023-11-21T11:14:13;26.27;;;23.87;;
39218;SDS011;24934;52.752;6.964;2023-11-21T11:16:40;26.90;;;24.30;;
39218;SDS011;24934;52.752;6.964;2023-11-21T11:19:09;27.07;;;24.37;;
39218;SDS011;24934;52.752;6.964;2023-11-21T11:26:39;26.37;;;23.97;;
39218;SDS011;24934;52.752;6.964;2023-11-21T11:29:14;25.83;;;23.40;;
39218;SDS011;24934;52.752;6.964;2023-11-21T11:34:34;25.13;;;22.80;;
39218;SDS011;24934;52.752;6.964;2023-11-21T11:37:06;26.10;;;23.40;;
39218;SDS011;24934;52.752;6.964;2023-11-21T11:39:36;26.50;;;23.90;;
39218;SDS011;24934;52.752;6.964;2023-11-21T11:42:03;26.83;;;24.20;;
39218;SDS011;24934;52.752;6.964;2023-11-21T11:47:15;26.07;;;23.57;;
39218;SDS011;24934;52.752;6.964;2023-11-21T11:50:14;26.77;;;24.20;;
39218;SDS011;24934;52.752;6.964;2023-11-21T11:52:39;26.10;;;23.57;;
39218;SDS011;24934;52.752;6.964;2023-11-21T11:55:15;26.17;;;23.67;;
39218;SDS011;24934;52.752;6.964;2023-11-21T11:57:49;26.70;;;24.07;;
39218;SDS011;24934;52.752;6.964;2023-11-21T12:00:19;25.77;;;23.37;;
39218;SDS011;24934;52.752;6.964;2023-11-21T12:02:53;26.47;;;23.97;;
39218;SDS011;24934;52.752;6.964;2023-11-21T12:05:20;25.67;;;23.17;;
39218;SDS011;24934;52.752;6.964;2023-11-21T12:07:50;26.33;;;23.83;;
39218;SDS011;24934;52.752;6.964;2023-11-21T12:10:19;26.70;;;24.10;;
39218;SDS011;24934;52.752;6.964;2023-11-21T12:12:46;25.73;;;23.27;;
39218;SDS011;24934;52.752;6.964;2023-11-21T12:15:13;27.03;;;24.53;;
39218;SDS011;24934;52.752;6.964;2023-11-21T12:17:43;26.17;;;23.67;;
39218;SDS011;24934;52.752;6.964;2023-11-21T12:20:10;26.90;;;24.40;;
39218;SDS011;24934;52.752;6.964;2023-11-21T12:22:46;26.67;;;24.07;;
39218;SDS011;24934;52.752;6.964;2023-11-21T12:25:13;25.43;;;23.03;;
39218;SDS011;24934;52.752;6.964;2023-11-21T12:27:44;25.43;;;23.13;;
39218;SDS011;24934;52.752;6.964;2023-11-21T12:30:11;24.50;;;22.30;;
39218;SDS011;24934;52.752;6.964;2023-11-21T12:32:42;25.23;;;22.83;;
39218;SDS011;24934;52.752;6.964;2023-11-21T12:35:11;25.03;;;22.63;;
39218;SDS011;24934;52.752;6.964;2023-11-21T12:37:38;25.13;;;22.73;;
39218;SDS011;24934;52.752;6.964;2023-11-21T12:40:08;25.03;;;22.73;;
39218;SDS011;24934;52.752;6.964;2023-11-21T12:42:37;26.17;;;23.47;;
39218;SDS011;24934;52.752;6.964;2023-11-21T12:45:07;26.13;;;23.57;;
39218;SDS011;24934;52.752;6.964;2023-11-21T12:47:36;24.90;;;22.53;;
39218;SDS011;24934;52.752;6.964;2023-11-21T12:50:05;25.93;;;23.33;;
39218;SDS011;24934;52.752;6.964;2023-11-21T12:52:39;25.43;;;23.03;;
39218;SDS011;24934;52.752;6.964;2023-11-21T12:55:05;26.20;;;23.67;;
39218;SDS011;24934;52.752;6.964;2023-11-21T12:57:33;23.77;;;21.63;;
39218;SDS011;24934;52.752;6.964;2023-11-21T12:59:59;24.80;;;22.50;;
39218;SDS011;24934;52.752;6.964;2023-11-21T13:02:36;24.57;;;22.10;;
39218;SDS011;24934;52.752;6.964;2023-11-21T13:05:03;25.57;;;23.27;;
39218;SDS011;24934;52.752;6.964;2023-11-21T13:07:41;24.80;;;22.20;;
39218;SDS011;24934;52.752;6.964;2023-11-21T13:10:15;24.03;;;21.83;;
39218;SDS011;24934;52.752;6.964;2023-11-21T13:12:47;25.07;;;22.67;;
39218;SDS011;24934;52.752;6.964;2023-11-21T13:15:17;24.77;;;22.47;;
39218;SDS011;24934;52.752;6.964;2023-11-21T13:17:44;24.00;;;21.90;;
39218;SDS011;24934;52.752;6.964;2023-11-21T13:20:11;24.10;;;21.73;;
39218;SDS011;24934;52.752;6.964;2023-11-21T13:25:23;24.43;;;22.13;;
39218;SDS011;24934;52.752;6.964;2023-11-21T13:27:58;24.40;;;21.93;;
39218;SDS011;24934;52.752;6.964;2023-11-21T13:30:26;24.90;;;22.40;;
39218;SDS011;24934;52.752;6.964;2023-11-21T13:32:54;24.50;;;22.10;;
39218;SDS011;24934;52.752;6.964;2023-11-21T13:35:28;23.83;;;21.67;;
39218;SDS011;24934;52.752;6.964;2023-11-21T13:38:21;23.60;;;21.60;;
39218;SDS011;24934;52.752;6.964;2023-11-21T13:40:49;24.17;;;21.80;;
39218;SDS011;24934;52.752;6.964;2023-11-21T13:43:22;23.33;;;21.13;;
39218;SDS011;24934;52.752;6.964;2023-11-21T13:45:54;23.10;;;20.80;;
39218;SDS011;24934;52.752;6.964;2023-11-21T13:48:29;22.90;;;20.80;;
39218;SDS011;24934;52.752;6.964;2023-11-21T13:51:16;23.57;;;21.17;;
39218;SDS011;24934;52.752;6.964;2023-11-21T13:53:43;23.87;;;21.53;;
39218;SDS011;24934;52.752;6.964;2023-11-21T13:56:15;23.20;;;21.00;;
39218;SDS011;24934;52.752;6.964;2023-11-21T13:58:53;23.97;;;21.67;;
39218;SDS011;24934;52.752;6.964;2023-11-21T14:01:21;23.80;;;21.53;;
39218;SDS011;24934;52.752;6.964;2023-11-21T14:04:07;24.03;;;21.73;;
39218;SDS011;24934;52.752;6.964;2023-11-21T14:06:45;23.57;;;21.17;;
39218;SDS011;24934;52.752;6.964;2023-11-21T14:11:54;26.17;;;23.57;;
39218;SDS011;24934;52.752;6.964;2023-11-21T14:14:22;25.80;;;23.20;;
39218;SDS011;24934;52.752;6.964;2023-11-21T14:16:52;26.57;;;23.77;;
39218;SDS011;24934;52.752;6.964;2023-11-21T14:19:18;26.37;;;23.57;;
39218;SDS011;24934;52.752;6.964;2023-11-21T14:21:45;23.60;;;21.30;;
39218;SDS011;24934;52.752;6.964;2023-11-21T14:24:13;31.23;;;26.23;;
39218;SDS011;24934;52.752;6.964;2023-11-21T14:26:43;24.07;;;21.70;;
39218;SDS011;24934;52.752;6.964;2023-11-21T14:29:11;22.33;;;20.33;;
39218;SDS011;24934;52.752;6.964;2023-11-21T14:31:39;22.03;;;19.93;;
39218;SDS011;24934;52.752;6.964;2023-11-21T14:34:06;22.60;;;20.40;;
39218;SDS011;24934;52.752;6.964;2023-11-21T14:36:39;22.70;;;20.43;;
39218;SDS011;24934;52.752;6.964;2023-11-21T14:39:05;22.47;;;20.47;;